Time;durP1;ratioP1;P1;durP2;ratioP2;P2;SDS_P1;SDS_P2;PMS_P1;PMS_P2;Temp;Humidity;BMP_temperature;BMP_pressure;BME280_temperature;BME280_humidity;BME280_pressure;Samples;Min_cycle;Max_cycle;Signal;HPM_P1;HPM_P2
2023/06/04 00:01:54;;;;;;;3.90;1.70;;;;;;;15.41;49.84;102036.22;5190530;28;20419;-71
2023/06/04 00:04:26;;;;;;;4.72;1.75;;;;;;;15.35;50.07;102035.94;5190387;28;20419;-71
2023/06/04 00:06:57;;;;;;;5.68;1.67;;;;;;;15.33;50.27;102028.94;5191904;28;20345;-71
2023/06/04 00:09:28;;;;;;;5.90;1.80;;;;;;;15.32;50.72;102029.94;5191026;28;20025;-71
2023/06/04 00:11:59;;;;;;;3.67;1.58;;;;;;;15.21;51.16;102022.09;5190491;28;20038;-71
2023/06/04 00:14:31;;;;;;;3.95;1.65;;;;;;;15.23;51.50;102027.25;5189249;28;20478;-71
2023/06/04 00:17:02;;;;;;;6.03;1.67;;;;;;;15.27;51.42;102018.94;5192122;28;20443;-71
2023/06/04 00:19:33;;;;;;;3.78;2.10;;;;;;;15.23;51.53;102017.53;5191426;28;20567;-71
2023/06/04 00:22:06;;;;;;;3.63;1.52;;;;;;;15.21;51.67;102011.53;5186941;28;20027;-71
2023/06/04 00:24:38;;;;;;;2.60;1.48;;;;;;;15.22;51.88;102018.47;5190972;28;20062;-71
2023/06/04 00:27:10;;;;;;;3.55;1.67;;;;;;;15.16;52.16;102020.84;5191784;28;20273;-71
2023/06/04 00:29:41;;;;;;;3.10;1.55;;;;;;;15.16;52.50;102023.47;5190187;28;20113;-71
2023/06/04 00:32:12;;;;;;;3.42;1.48;;;;;;;15.13;52.44;102016.66;5188307;28;20033;-71
2023/06/04 00:34:50;;;;;;;3.60;1.70;;;;;;;15.23;52.83;102025.47;5191297;28;20026;-71
2023/06/04 00:37:22;;;;;;;4.85;2.00;;;;;;;15.06;52.36;102012.84;5189863;28;20435;-72
2023/06/04 00:39:53;;;;;;;3.03;1.70;;;;;;;15.03;52.78;102019.22;5189817;28;20121;-71
2023/06/04 00:42:25;;;;;;;5.43;1.90;;;;;;;15.02;53.47;102022.81;5191711;28;20030;-71
2023/06/04 00:44:57;;;;;;;5.35;1.60;;;;;;;15.00;53.83;102018.63;5191821;28;20444;-71
2023/06/04 00:47:28;;;;;;;2.85;1.60;;;;;;;15.01;54.07;102015.06;5188210;28;20108;-71
2023/06/04 00:50:00;;;;;;;3.40;1.70;;;;;;;14.90;53.41;102021.22;5191824;28;20518;-71
2023/06/04 00:52:31;;;;;;;5.68;1.80;;;;;;;14.87;54.22;102016.22;5191146;28;20471;-72
2023/06/04 00:55:03;;;;;;;3.70;1.80;;;;;;;14.82;55.12;102013.97;5171816;28;20065;-72
2023/06/04 00:57:34;;;;;;;3.28;1.90;;;;;;;14.84;55.15;102013.81;5190840;28;20445;-72
2023/06/04 01:00:07;;;;;;;4.53;1.70;;;;;;;14.78;54.63;102014.34;5189957;28;20030;-72
2023/06/04 01:02:41;;;;;;;5.40;1.85;;;;;;;14.75;55.91;102007.53;5188769;28;20034;-72
2023/06/04 01:05:28;;;;;;;5.03;1.92;;;;;;;14.73;56.05;102009.44;5191167;28;20030;-72
2023/06/04 01:08:00;;;;;;;3.78;1.45;;;;;;;14.70;56.32;102009.72;5189447;28;20044;-72
2023/06/04 01:10:32;;;;;;;4.57;1.80;;;;;;;14.65;56.71;102019.81;5189018;28;20416;-72
2023/06/04 01:13:03;;;;;;;6.63;1.75;;;;;;;14.59;56.60;102009.78;5186136;28;20543;-72
2023/06/04 01:15:34;;;;;;;3.20;1.70;;;;;;;14.52;57.36;102004.19;5186988;28;20406;-72
2023/06/04 01:18:06;;;;;;;3.25;1.60;;;;;;;14.60;57.16;102027.28;5187105;28;20030;-72
2023/06/04 01:20:41;;;;;;;3.72;1.90;;;;;;;14.57;58.20;102028.34;5187663;28;20030;-72
2023/06/04 01:23:34;;;;;;;3.13;1.63;;;;;;;14.58;58.44;102027.41;5189028;28;20025;-72
2023/06/04 01:26:05;;;;;;;4.15;2.03;;;;;;;14.53;58.52;102032.22;5190045;28;20030;-72
2023/06/04 01:28:37;;;;;;;4.43;1.70;;;;;;;14.51;58.58;102020.13;5187569;28;20050;-72
2023/06/04 01:31:08;;;;;;;4.68;1.77;;;;;;;14.41;58.68;102027.09;5189244;28;20456;-72
2023/06/04 01:33:40;;;;;;;3.53;1.88;;;;;;;14.40;59.61;102028.06;5189739;28;20034;-72
2023/06/04 01:36:12;;;;;;;3.75;1.70;;;;;;;14.31;60.47;102025.19;5189146;28;20125;-72
2023/06/04 01:38:43;;;;;;;5.00;1.63;;;;;;;14.43;60.03;102027.78;5186356;28;20037;-72
2023/06/04 01:41:15;;;;;;;3.08;1.70;;;;;;;14.26;60.89;102019.47;5188558;28;20019;-72
2023/06/04 01:43:46;;;;;;;3.42;1.80;;;;;;;14.20;61.05;102022.59;5189777;28;20492;-72
2023/06/04 01:46:17;;;;;;;4.50;2.08;;;;;;;14.12;61.61;102014.47;5190794;28;20110;-72
2023/06/04 01:48:48;;;;;;;4.20;1.58;;;;;;;14.18;61.43;102024.53;5188409;28;20038;-72
2023/06/04 01:51:20;;;;;;;4.45;1.92;;;;;;;14.18;60.36;102015.78;5189209;28;20032;-72
2023/06/04 01:53:51;;;;;;;3.03;1.40;;;;;;;14.28;59.50;102020.19;5189361;28;20018;-72
2023/06/04 01:56:22;;;;;;;4.88;1.60;;;;;;;14.09;61.90;102014.72;5187079;28;20062;-72
2023/06/04 01:58:54;;;;;;;3.35;1.75;;;;;;;14.16;61.82;102020.34;5189129;28;20049;-72
2023/06/04 02:01:25;;;;;;;3.78;1.73;;;;;;;14.14;61.32;102020.47;5188777;28;20030;-72
2023/06/04 02:03:56;;;;;;;3.55;1.38;;;;;;;14.12;61.65;102025.03;5188917;28;20022;-72
2023/06/04 02:06:29;;;;;;;2.78;1.73;;;;;;;14.05;61.95;102018.56;5188663;28;20030;-72
2023/06/04 02:09:01;;;;;;;;;;;;;;;14.74;56.34;102019.06;5190777;28;20030;-71
2023/06/04 02:11:32;;;;;;;4.38;1.80;;;;;;;14.01;61.70;102019.78;5187082;28;19937;-72
2023/06/04 02:14:03;;;;;;;3.13;1.70;;;;;;;13.93;62.19;102014.28;5187763;28;20030;-72
2023/06/04 02:16:34;;;;;;;4.35;1.40;;;;;;;13.87;62.59;102015.66;5190415;28;20392;-72
2023/06/04 02:19:06;;;;;;;2.70;1.75;;;;;;;13.81;63.09;102016.94;5187417;28;20514;-72
2023/06/04 02:21:37;;;;;;;4.60;1.80;;;;;;;13.77;65.16;102017.31;5189073;28;20502;-72
2023/06/04 02:24:08;;;;;;;3.08;1.65;;;;;;;13.72;65.02;102014.22;5189004;28;20058;-72
2023/06/04 02:26:41;;;;;;;3.88;1.40;;;;;;;13.67;65.43;102014.56;5190685;28;20018;-72
2023/06/04 02:29:12;;;;;;;3.42;1.90;;;;;;;13.75;64.59;102013.97;5187292;28;20075;-72
2023/06/04 02:31:43;;;;;;;3.13;1.80;;;;;;;13.64;64.05;102009.56;5187605;28;20034;-71
2023/06/04 02:34:15;;;;;;;6.70;1.98;;;;;;;13.56;65.06;102012.81;5190202;28;20380;-72
2023/06/04 02:36:48;;;;;;;4.00;1.50;;;;;;;13.57;65.25;102021.53;5189969;28;20073;-72
2023/06/04 02:39:20;;;;;;;2.38;1.73;;;;;;;13.57;65.70;102018.91;5185927;28;20133;-72
2023/06/04 02:41:51;;;;;;;3.70;1.75;;;;;;;13.51;65.80;102027.28;5189394;28;20651;-72
2023/06/04 02:44:22;;;;;;;3.10;1.83;;;;;;;13.51;64.87;102022.00;5188511;28;20072;-72
2023/06/04 02:46:54;;;;;;;7.63;2.08;;;;;;;13.41;67.17;102023.69;5170738;28;20026;-72
2023/06/04 02:49:25;;;;;;;6.80;1.80;;;;;;;13.30;67.51;102030.63;5192648;28;20399;-72
2023/06/04 02:51:56;;;;;;;5.30;1.80;;;;;;;13.26;68.90;102026.56;5192568;28;20026;-72
2023/06/04 02:54:28;;;;;;;3.20;1.70;;;;;;;13.17;69.68;102029.03;5192685;28;20030;-72
2023/06/04 02:56:59;;;;;;;5.78;1.90;;;;;;;13.21;69.11;102025.22;5192641;28;20104;-72
2023/06/04 02:59:32;;;;;;;5.05;2.00;;;;;;;13.12;69.83;102024.13;5191982;28;20041;-71
2023/06/04 03:02:04;;;;;;;4.65;1.75;;;;;;;13.09;70.18;102019.09;5190945;28;20022;-71
2023/06/04 03:04:35;;;;;;;4.25;1.50;;;;;;;13.15;70.44;102031.78;5192449;28;20476;-71
2023/06/04 03:07:07;;;;;;;4.80;1.50;;;;;;;13.07;70.81;102026.28;5194577;28;20030;-72
2023/06/04 03:09:39;;;;;;;7.00;2.05;;;;;;;13.10;70.82;102028.66;5175128;28;20113;-71
2023/06/04 03:12:10;;;;;;;4.80;1.80;;;;;;;13.07;70.04;102037.66;5181444;28;20537;-72
2023/06/04 03:14:41;;;;;;;3.78;1.52;;;;;;;13.04;70.40;102029.16;5191017;28;20030;-72
2023/06/04 03:17:13;;;;;;;7.10;2.08;;;;;;;13.01;70.29;102018.84;5189366;28;20031;-72
2023/06/04 03:19:44;;;;;;;3.65;1.95;;;;;;;12.97;71.51;102023.50;5186570;28;20037;-72
2023/06/04 03:22:15;;;;;;;4.57;1.98;;;;;;;12.91;71.99;102016.91;5185547;28;20048;-71
2023/06/04 03:24:47;;;;;;;2.15;1.50;;;;;;;12.96;70.98;102018.38;5189577;28;20069;-72
2023/06/04 03:27:19;;;;;;;4.18;1.63;;;;;;;12.97;70.83;102014.78;5189253;28;20030;-71
2023/06/04 03:29:50;;;;;;;5.33;1.70;;;;;;;12.84;71.77;102014.84;5193243;28;20092;-72
2023/06/04 03:32:22;;;;;;;3.15;1.98;;;;;;;12.88;70.33;102017.16;5192520;28;20030;-72
2023/06/04 03:34:53;;;;;;;5.60;2.22;;;;;;;12.86;72.21;102015.59;5190360;28;20072;-72
2023/06/04 03:37:25;;;;;;;3.47;1.90;;;;;;;12.87;71.25;102014.63;5192935;28;20034;-72
2023/06/04 03:39:57;;;;;;;3.58;1.67;;;;;;;12.85;71.62;102016.56;5190830;28;20078;-72
2023/06/04 03:42:28;;;;;;;3.08;1.90;;;;;;;12.88;71.03;102018.97;5193664;28;20030;-72
2023/06/04 03:44:59;;;;;;;3.75;1.83;;;;;;;12.88;70.79;102016.31;5192789;28;20030;-71
2023/06/04 03:47:30;;;;;;;3.58;2.35;;;;;;;12.83;70.76;102013.19;5190682;28;20018;-72
2023/06/04 03:50:02;;;;;;;4.30;1.90;;;;;;;12.83;71.43;102021.06;5191179;28;20065;-72
2023/06/04 03:52:33;;;;;;;3.58;1.90;;;;;;;12.84;70.96;102028.00;5188904;28;20037;-72
2023/06/04 03:55:05;;;;;;;4.13;1.90;;;;;;;12.88;70.90;102024.22;5188537;28;20368;-72
2023/06/04 03:57:38;;;;;;;3.95;1.85;;;;;;;12.88;71.37;102024.22;5174020;28;20034;-72
2023/06/04 04:00:13;;;;;;;2.90;1.75;;;;;;;12.89;71.19;102012.72;5191460;28;20242;-71
2023/06/04 04:02:44;;;;;;;2.65;1.95;;;;;;;12.88;71.02;102021.59;5191937;28;20034;-72
2023/06/04 04:05:16;;;;;;;3.30;1.73;;;;;;;12.88;71.31;102027.69;5188647;28;20429;-71
2023/06/04 04:07:47;;;;;;;4.05;2.00;;;;;;;12.86;71.33;102024.31;5190661;28;20026;-71
2023/06/04 04:10:19;;;;;;;4.40;1.88;;;;;;;12.85;71.69;102029.69;5191282;28;20029;-71
2023/06/04 04:12:51;;;;;;;6.10;2.10;;;;;;;12.83;71.15;102023.72;5172698;28;20038;-72
2023/06/04 04:15:22;;;;;;;4.65;1.90;;;;;;;12.85;71.52;102027.91;5192183;28;20506;-71
2023/06/04 04:17:55;;;;;;;3.83;1.83;;;;;;;12.88;71.06;102022.41;5191707;28;20022;-71
2023/06/04 04:20:26;;;;;;;4.07;1.87;;;;;;;12.89;71.00;102024.09;5188865;28;20030;-71
2023/06/04 04:22:57;;;;;;;3.28;2.08;;;;;;;12.87;71.06;102020.72;5184127;28;20030;-71
2023/06/04 04:25:28;;;;;;;3.35;1.92;;;;;;;12.91;71.40;102030.06;5188284;28;20053;-71
2023/06/04 04:28:00;;;;;;;4.47;2.00;;;;;;;12.90;71.83;102022.28;5191742;28;20030;-71
2023/06/04 04:30:33;;;;;;;2.92;1.80;;;;;;;12.93;70.41;102022.06;5191999;28;20025;-71
2023/06/04 04:33:06;;;;;;;3.72;2.40;;;;;;;12.97;71.36;102027.94;5190084;28;20392;-71
2023/06/04 04:35:37;;;;;;;3.38;1.95;;;;;;;13.00;70.42;102020.66;5190372;28;20584;-71
2023/06/04 04:38:09;;;;;;;2.60;1.98;;;;;;;13.04;70.29;102026.50;5189624;28;20050;-71
2023/06/04 04:40:40;;;;;;;6.00;2.20;;;;;;;13.03;69.90;102019.56;5171752;28;20104;-71
2023/06/04 04:43:12;;;;;;;4.07;1.83;;;;;;;13.12;69.90;102034.66;5189722;28;20483;-71
2023/06/04 04:45:43;;;;;;;4.80;2.22;;;;;;;13.16;70.07;102030.81;5190270;28;20432;-71
2023/06/04 04:48:14;;;;;;;4.22;1.98;;;;;;;13.20;69.72;102027.00;5187009;28;20018;-71
2023/06/04 04:50:46;;;;;;;4.72;2.03;;;;;;;13.25;69.21;102032.78;5189539;28;20044;-71
2023/06/04 04:53:17;;;;;;;2.88;1.70;;;;;;;13.32;68.08;102033.13;5190723;28;20030;-71
2023/06/04 04:55:48;;;;;;;3.97;1.98;;;;;;;13.31;68.60;102034.09;5190064;28;20038;-71
2023/06/04 04:58:20;;;;;;;4.05;1.98;;;;;;;13.35;68.11;102035.53;5173418;28;20038;-71
2023/06/04 05:00:51;;;;;;;3.13;2.22;;;;;;;13.43;68.84;102037.56;5173466;28;20027;-71
2023/06/04 05:03:22;;;;;;;2.95;1.70;;;;;;;13.45;68.53;102033.88;5169393;28;20041;-71
2023/06/04 05:05:53;;;;;;;4.35;1.95;;;;;;;13.49;68.27;102032.69;5173568;28;20034;-71
2023/06/04 05:08:25;;;;;;;5.30;2.53;;;;;;;13.50;68.07;102041.41;5189782;28;20018;-71
2023/06/04 05:10:56;;;;;;;3.30;2.03;;;;;;;13.51;67.42;102040.44;5188718;28;20057;-71
2023/06/04 05:13:27;;;;;;;3.78;1.63;;;;;;;13.57;69.04;102034.72;5187746;28;20034;-71
2023/06/04 05:15:59;;;;;;;2.72;2.03;;;;;;;13.60;68.92;102051.09;5186899;28;20042;-71
2023/06/04 05:18:30;;;;;;;3.22;1.92;;;;;;;13.66;67.92;102047.13;5170531;28;20475;-71
2023/06/04 05:21:02;;;;;;;4.07;2.17;;;;;;;13.73;68.90;102050.97;5171970;28;20028;-71
2023/06/04 05:23:34;;;;;;;3.33;1.80;;;;;;;13.76;68.32;102044.63;5189592;28;20492;-72
2023/06/04 05:26:05;;;;;;;5.35;2.33;;;;;;;13.77;68.46;102036.59;5187637;28;20029;-72
2023/06/04 05:28:38;;;;;;;5.30;2.05;;;;;;;13.92;66.37;102049.50;5189706;28;20026;-72
2023/06/04 05:31:13;;;;;;;3.30;1.80;;;;;;;13.99;67.17;102046.25;5189631;28;20029;-72
2023/06/04 05:33:44;;;;;;;4.80;2.08;;;;;;;14.03;67.11;102052.13;5186396;28;20030;-71
2023/06/04 05:36:16;;;;;;;3.80;2.03;;;;;;;14.05;65.02;102040.50;5179358;28;20052;-71
2023/06/04 05:38:47;;;;;;;4.18;2.17;;;;;;;14.13;65.19;102032.00;5178165;28;20235;-72
2023/06/04 05:41:18;;;;;;;3.08;1.73;;;;;;;14.16;65.32;102046.69;5190101;28;20080;-72
2023/06/04 05:43:50;;;;;;;6.32;2.42;;;;;;;14.18;64.69;102044.78;5171778;28;20325;-72
2023/06/04 05:46:21;;;;;;;4.00;1.90;;;;;;;14.23;64.53;102035.53;5188926;28;20054;-72
2023/06/04 05:48:53;;;;;;;5.15;2.17;;;;;;;14.33;64.73;102041.75;5190100;28;20025;-72
2023/06/04 05:51:25;;;;;;;4.57;2.10;;;;;;;14.35;63.29;102042.44;5187175;28;20034;-72
2023/06/04 05:53:56;;;;;;;3.85;2.22;;;;;;;14.42;60.90;102039.31;5190291;28;20028;-72
2023/06/04 05:56:27;;;;;;;2.78;2.13;;;;;;;14.47;61.16;102040.63;5186601;28;20027;-72
2023/06/04 05:58:58;;;;;;;4.38;2.08;;;;;;;14.55;61.91;102035.56;5189825;28;20145;-72
2023/06/04 06:01:30;;;;;;;6.35;2.08;;;;;;;14.70;61.77;102049.28;5189205;28;20031;-72
2023/06/04 06:04:01;;;;;;;3.30;1.80;;;;;;;14.78;60.66;102049.50;5165218;28;20506;-72
2023/06/04 06:06:33;;;;;;;4.00;2.15;;;;;;;14.91;60.07;102043.19;5188181;28;20506;-72
2023/06/04 06:09:04;;;;;;;6.15;2.45;;;;;;;15.00;60.51;102051.16;5187657;28;20042;-72
2023/06/04 06:11:36;;;;;;;4.43;2.50;;;;;;;15.12;59.13;102043.19;5186476;28;20112;-72
2023/06/04 06:14:07;;;;;;;3.38;1.83;;;;;;;15.26;58.31;102048.94;5187325;28;20038;-72
2023/06/04 06:16:39;;;;;;;4.95;2.22;;;;;;;15.38;59.93;102054.13;5188025;28;20060;-72
2023/06/04 06:19:11;;;;;;;3.17;1.90;;;;;;;15.40;56.96;102045.13;5189241;28;20042;-72
2023/06/04 06:21:42;;;;;;;3.85;2.10;;;;;;;15.57;56.48;102048.97;5187990;28;21195;-72
2023/06/04 06:24:13;;;;;;;4.68;2.10;;;;;;;15.65;54.61;102037.72;5190825;28;20046;-72
2023/06/04 06:26:45;;;;;;;4.95;2.17;;;;;;;15.81;54.98;102059.22;5192679;28;20395;-72
2023/06/04 06:29:16;;;;;;;4.82;2.17;;;;;;;15.96;52.96;102062.31;5193317;28;20408;-72
2023/06/04 06:31:47;;;;;;;4.55;2.38;;;;;;;16.01;52.50;102060.09;5192177;28;20031;-72
2023/06/04 06:34:19;;;;;;;4.47;1.80;;;;;;;16.16;52.79;102057.88;5188760;28;20030;-72
2023/06/04 06:36:50;;;;;;;3.15;1.80;;;;;;;16.25;51.19;102057.06;5191079;28;20257;-72
2023/06/04 06:39:21;;;;;;;2.80;2.00;;;;;;;16.39;52.14;102056.66;5190944;28;20034;-72
2023/06/04 06:41:53;;;;;;;3.78;2.20;;;;;;;16.53;53.77;102061.53;5191043;28;20480;-72
2023/06/04 06:44:24;;;;;;;5.32;1.92;;;;;;;16.65;54.70;102061.41;5193511;28;20547;-72
2023/06/04 06:46:55;;;;;;;2.72;2.10;;;;;;;16.82;53.25;102070.47;5191363;28;20026;-72
2023/06/04 06:49:26;;;;;;;5.75;2.33;;;;;;;16.90;51.84;102060.84;5189491;28;20027;-72
2023/06/04 06:51:58;;;;;;;4.22;2.20;;;;;;;17.12;50.33;102064.13;5191186;28;20029;-72
2023/06/04 06:54:29;;;;;;;6.57;2.27;;;;;;;17.27;50.72;102060.91;5191110;28;20415;-72
2023/06/04 06:57:00;;;;;;;4.68;2.40;;;;;;;17.42;48.94;102071.84;5189029;28;20852;-72
2023/06/04 06:59:32;;;;;;;3.30;2.05;;;;;;;17.40;47.93;102060.56;5193665;28;20112;-72
2023/06/04 07:02:04;;;;;;;5.10;1.85;;;;;;;17.51;50.23;102072.81;5192541;28;20380;-72
2023/06/04 07:04:36;;;;;;;3.88;2.30;;;;;;;17.67;49.54;102073.00;5192425;28;20491;-72
2023/06/04 07:07:07;;;;;;;4.68;2.10;;;;;;;17.83;46.37;102076.88;5190943;28;20022;-72
2023/06/04 07:09:38;;;;;;;3.00;1.73;;;;;;;18.04;45.87;102080.13;5192236;28;20026;-72
2023/06/04 07:12:09;;;;;;;3.60;1.98;;;;;;;18.20;46.43;102074.16;5190026;28;20133;-72
2023/06/04 07:14:42;;;;;;;3.92;2.00;;;;;;;18.35;44.92;102082.44;5188238;28;20500;-72
2023/06/04 07:17:13;;;;;;;5.38;2.13;;;;;;;18.41;44.88;102077.34;5192685;28;20038;-72
2023/06/04 07:19:44;;;;;;;4.43;2.28;;;;;;;18.61;43.36;102080.69;5191617;28;20033;-73
2023/06/04 07:22:16;;;;;;;6.38;2.33;;;;;;;18.75;43.13;102081.13;5190639;28;20054;-72
2023/06/04 07:24:47;;;;;;;3.47;2.28;;;;;;;18.82;42.43;102082.19;5190712;28;20496;-72
2023/06/04 07:27:19;;;;;;;3.97;1.90;;;;;;;18.91;42.21;102082.13;5191426;28;21365;-74
2023/06/04 07:29:50;;;;;;;3.72;2.00;;;;;;;19.17;41.75;102079.47;5189880;28;20039;-72
2023/06/04 07:32:21;;;;;;;3.45;2.10;;;;;;;19.30;40.90;102079.03;5190013;28;20069;-72
2023/06/04 07:34:53;;;;;;;5.90;2.17;;;;;;;19.38;40.89;102084.41;5191780;28;20566;-72
2023/06/04 07:37:24;;;;;;;4.20;2.28;;;;;;;19.51;40.26;102080.47;5191899;28;20496;-72
2023/06/04 07:39:55;;;;;;;4.95;2.05;;;;;;;19.58;40.25;102076.19;5187918;28;20030;-72
2023/06/04 07:42:27;;;;;;;4.40;2.07;;;;;;;19.68;40.42;102077.78;5191493;28;20033;-72
2023/06/04 07:44:58;;;;;;;5.43;2.60;;;;;;;19.84;39.09;102070.84;5187898;28;20029;-73
2023/06/04 07:47:29;;;;;;;4.68;2.42;;;;;;;19.89;37.63;102084.50;5186555;28;20137;-73
2023/06/04 07:50:01;;;;;;;5.38;2.15;;;;;;;20.03;38.39;102072.41;5186552;28;20064;-72
2023/06/04 07:52:33;;;;;;;3.28;2.25;;;;;;;20.13;38.09;102073.94;5191684;28;20034;-72
2023/06/04 07:55:05;;;;;;;5.30;2.77;;;;;;;20.15;38.30;102084.41;5191673;28;20026;-72
2023/06/04 07:57:37;;;;;;;4.57;1.92;;;;;;;20.40;35.59;102082.63;5188432;28;20631;-72
2023/06/04 08:00:09;;;;;;;3.37;1.93;;;;;;;20.50;36.34;102080.69;5190914;28;20092;-73
2023/06/04 08:02:40;;;;;;;5.13;2.37;;;;;;;20.63;37.20;102075.69;5187334;28;20039;-72
2023/06/04 08:05:13;;;;;;;2.92;1.65;;;;;;;20.85;37.27;102078.69;5189891;28;20030;-73
2023/06/04 08:07:46;;;;;;;4.18;1.85;;;;;;;20.87;37.05;102079.31;5188010;28;20037;-72
2023/06/04 08:10:17;;;;;;;3.65;2.10;;;;;;;21.05;34.97;102076.47;5189563;28;20475;-73
2023/06/04 08:12:49;;;;;;;3.00;1.90;;;;;;;21.09;35.06;102083.97;5188816;28;20029;-73
2023/06/04 08:15:20;;;;;;;3.50;2.00;;;;;;;21.21;35.41;102075.63;5189590;28;20121;-72
2023/06/04 08:17:51;;;;;;;4.17;2.27;;;;;;;21.38;35.15;102078.09;5189125;28;20030;-73
2023/06/04 08:20:23;;;;;;;5.63;1.90;;;;;;;21.45;34.67;102083.59;5189583;28;20437;-74
2023/06/04 08:22:55;;;;;;;5.77;2.00;;;;;;;21.78;34.22;102078.97;5186712;28;20092;-73
2023/06/04 08:25:26;;;;;;;2.97;1.70;;;;;;;21.91;33.47;102081.06;5187621;28;20050;-73
2023/06/04 08:27:57;;;;;;;4.40;2.03;;;;;;;22.11;33.55;102084.13;5190194;28;20030;-73
2023/06/04 08:30:29;;;;;;;5.87;2.03;;;;;;;22.29;33.35;102083.88;5191081;28;20022;-73
2023/06/04 08:33:00;;;;;;;3.67;1.70;;;;;;;22.19;32.32;102080.59;5189415;28;20034;-73
2023/06/04 08:35:31;;;;;;;2.50;1.60;;;;;;;22.43;32.76;102080.44;5191689;28;20164;-72
2023/06/04 08:38:03;;;;;;;2.80;1.77;;;;;;;22.46;31.89;102073.88;5187535;28;20026;-73
2023/06/04 08:40:35;;;;;;;2.60;1.57;;;;;;;22.52;32.26;102079.34;5186781;28;20039;-72
2023/06/04 08:43:06;;;;;;;3.40;1.60;;;;;;;22.66;31.20;102083.09;5173163;28;20053;-72
2023/06/04 08:45:39;;;;;;;3.30;1.67;;;;;;;22.73;29.85;102077.84;5191336;28;20108;-72
2023/06/04 08:48:12;;;;;;;5.63;1.70;;;;;;;22.75;30.36;102083.84;5189089;28;20688;-72
2023/06/04 08:50:47;;;;;;;2.72;1.48;;;;;;;22.85;30.25;102084.44;5190068;28;20493;-72
2023/06/04 08:53:19;;;;;;;3.00;1.77;;;;;;;22.99;30.50;102088.16;5190957;28;20384;-72
2023/06/04 08:55:53;;;;;;;3.33;1.47;;;;;;;23.21;30.42;102087.28;5189335;28;20031;-72
2023/06/04 08:58:25;;;;;;;3.17;1.40;;;;;;;23.35;28.86;102082.13;5188450;28;20038;-72
2023/06/04 09:00:57;;;;;;;;;;;;;;;24.19;29.58;102090.59;5189614;28;20023;-72
2023/06/04 09:03:32;;;;;;;2.75;1.60;;;;;;;23.57;28.02;102096.41;5187734;28;19937;-72
2023/06/04 09:06:04;;;;;;;3.28;1.40;;;;;;;23.70;28.85;102091.25;5189985;28;20444;-72
2023/06/04 09:08:39;;;;;;;4.50;1.40;;;;;;;23.68;27.26;102093.31;5189760;28;20031;-72
2023/06/04 09:11:13;;;;;;;2.53;1.30;;;;;;;23.84;27.18;102093.09;5190073;28;20026;-72
2023/06/04 09:13:47;;;;;;;2.60;1.40;;;;;;;23.93;26.54;102075.06;5185933;28;20399;-72
2023/06/04 09:16:18;;;;;;;2.05;1.20;;;;;;;23.94;26.59;102092.78;5189907;28;20030;-73
2023/06/04 09:18:50;;;;;;;2.23;1.37;;;;;;;24.02;26.13;102098.03;5190216;28;20031;-72
2023/06/04 09:21:21;;;;;;;4.37;1.10;;;;;;;24.20;26.14;102092.25;5189914;28;20030;-73
2023/06/04 09:23:52;;;;;;;2.10;1.10;;;;;;;24.28;24.75;102102.84;5189433;28;20586;-73
2023/06/04 09:26:24;;;;;;;2.90;1.17;;;;;;;24.38;24.45;102089.97;5187975;28;20337;-73
2023/06/04 09:28:57;;;;;;;4.15;1.30;;;;;;;24.41;24.92;102092.28;5189962;28;20507;-73
2023/06/04 09:31:31;;;;;;;2.90;1.20;;;;;;;24.27;24.96;102093.97;5185971;28;20030;-73
2023/06/04 09:34:03;;;;;;;4.50;1.30;;;;;;;24.35;23.96;102084.97;5190598;28;20088;-73
2023/06/04 09:36:35;;;;;;;2.10;1.35;;;;;;;24.42;25.09;102083.22;5189978;28;20026;-73
2023/06/04 09:39:16;;;;;;;2.85;1.10;;;;;;;24.65;24.46;102090.25;5187601;28;20112;-73
2023/06/04 09:42:01;;;;;;;2.30;1.30;;;;;;;24.64;24.34;102078.69;5190320;28;20109;-73
2023/06/04 09:44:43;;;;;;;2.25;1.05;;;;;;;24.80;24.03;102100.88;5187146;28;20034;-73
2023/06/04 09:47:15;;;;;;;2.03;1.08;;;;;;;24.65;24.40;102085.69;5186833;28;20030;-73
2023/06/04 09:49:49;;;;;;;3.67;0.98;;;;;;;24.71;23.81;102087.63;5189709;28;20041;-73
2023/06/04 09:52:21;;;;;;;3.03;1.20;;;;;;;24.80;24.00;102082.13;5189391;28;20030;-73
2023/06/04 09:54:53;;;;;;;2.42;1.10;;;;;;;25.07;24.21;102086.63;5190036;28;20026;-73
2023/06/04 09:57:25;;;;;;;4.13;1.30;;;;;;;25.12;24.59;102080.75;5187924;28;20026;-73
2023/06/04 09:59:57;;;;;;;2.65;1.00;;;;;;;25.18;24.59;102082.63;5189323;28;20027;-73
2023/06/04 10:02:29;;;;;;;2.25;0.95;;;;;;;25.28;24.85;102077.75;5185461;28;20491;-72
2023/06/04 10:05:01;;;;;;;;;;;;;;;26.04;24.12;102075.00;5186430;28;20034;-72
2023/06/04 10:07:36;;;;;;;3.33;0.82;;;;;;;25.62;24.45;102073.38;5188681;28;19980;-72
2023/06/04 10:10:10;;;;;;;2.45;1.00;;;;;;;25.45;24.28;102079.06;5188443;28;20022;-73
2023/06/04 10:12:43;;;;;;;3.45;1.10;;;;;;;25.30;23.26;102080.22;5185375;28;20399;-72
2023/06/04 10:15:16;;;;;;;2.30;1.00;;;;;;;25.45;23.84;102086.28;5187319;28;20558;-73
2023/06/04 10:17:49;;;;;;;3.03;0.90;;;;;;;25.46;24.12;102083.41;5181940;28;20037;-73
2023/06/04 10:20:21;;;;;;;1.83;1.05;;;;;;;25.58;24.70;102090.91;5186603;28;20058;-73
2023/06/04 10:22:55;;;;;;;2.73;0.90;;;;;;;25.54;23.77;102077.06;5179527;28;20994;-73
2023/06/04 10:25:26;;;;;;;4.07;1.33;;;;;;;25.52;24.04;102073.72;5186107;28;20698;-73
2023/06/04 10:27:59;;;;;;;2.93;1.10;;;;;;;25.69;23.85;102082.28;5187927;28;20427;-73
2023/06/04 10:30:31;;;;;;;3.53;0.90;;;;;;;25.71;23.76;102078.34;5189140;28;20018;-72
2023/06/04 10:33:03;;;;;;;1.60;0.97;;;;;;;25.62;23.70;102081.44;5181779;28;20036;-71
2023/06/04 10:35:35;;;;;;;3.88;1.10;;;;;;;25.63;22.55;102075.03;5186842;28;20057;-72
2023/06/04 10:38:13;;;;;;;4.07;0.90;;;;;;;25.62;22.85;102082.25;5185226;28;20027;-72
2023/06/04 10:40:44;;;;;;;3.10;0.98;;;;;;;25.85;24.76;102078.44;5181079;28;20069;-72
2023/06/04 10:43:16;;;;;;;6.70;1.27;;;;;;;25.96;23.07;102081.38;5183953;28;20118;-72
2023/06/04 10:45:47;;;;;;;4.30;1.07;;;;;;;25.88;22.73;102081.56;5189271;28;20042;-72
2023/06/04 10:48:20;;;;;;;2.57;1.17;;;;;;;26.02;22.42;102078.91;5185451;28;20328;-71
2023/06/04 10:50:52;;;;;;;2.47;0.90;;;;;;;26.06;22.45;102080.97;5188841;28;20030;-72
2023/06/04 10:53:23;;;;;;;;;;;;;;;26.95;22.43;102073.63;5187424;28;20018;-72
2023/06/04 10:55:55;;;;;;;2.25;1.02;;;;;;;26.26;23.24;102083.72;5185660;28;19999;-72
2023/06/04 10:58:32;;;;;;;3.50;1.10;;;;;;;26.32;22.45;102079.38;5187725;28;20030;-72
2023/06/04 11:01:03;;;;;;;2.05;1.00;;;;;;;26.17;22.89;102074.19;5188040;28;20058;-72
2023/06/04 11:03:38;;;;;;;2.37;1.13;;;;;;;26.38;23.02;102082.06;5186633;28;20088;-71
2023/06/04 11:06:18;;;;;;;2.40;1.08;;;;;;;26.40;22.83;102079.16;5185348;28;20039;-71
2023/06/04 11:08:50;;;;;;;3.67;1.20;;;;;;;26.43;23.58;102071.53;5185606;28;20045;-71
2023/06/04 11:11:21;;;;;;;2.40;1.10;;;;;;;26.71;24.53;102078.63;5189309;28;20479;-71
2023/06/04 11:13:52;;;;;;;3.73;1.10;;;;;;;26.47;22.53;102074.66;5192693;28;20030;-71
2023/06/04 11:16:23;;;;;;;2.77;1.20;;;;;;;26.42;23.14;102072.56;5190178;28;20053;-71
2023/06/04 11:18:57;;;;;;;4.47;1.00;;;;;;;26.55;23.02;102057.50;5191222;28;20092;-71
2023/06/04 11:21:28;;;;;;;6.85;1.25;;;;;;;26.38;22.15;102068.63;5189718;28;20044;-71
2023/06/04 11:24:00;;;;;;;4.25;0.98;;;;;;;26.51;22.29;102065.16;5190571;28;20058;-71
2023/06/04 11:26:33;;;;;;;2.75;1.00;;;;;;;26.56;22.86;102068.06;5190050;28;20049;-71
2023/06/04 11:29:11;;;;;;;3.75;1.30;;;;;;;26.58;23.81;102065.16;5190865;28;20150;-72
2023/06/04 11:31:43;;;;;;;4.95;1.05;;;;;;;26.62;23.48;102061.84;5185177;28;20030;-72
2023/06/04 11:34:25;;;;;;;2.75;0.73;;;;;;;26.77;23.14;102061.63;5186471;28;20026;-71
2023/06/04 11:37:07;;;;;;;3.88;1.00;;;;;;;26.95;23.35;102047.56;5189272;28;20053;-71
2023/06/04 11:39:40;;;;;;;2.22;0.82;;;;;;;26.84;23.05;102064.31;5190860;28;21274;-72
2023/06/04 11:42:12;;;;;;;1.60;1.00;;;;;;;26.54;21.55;102067.44;5189263;28;20050;-72
2023/06/04 11:44:48;;;;;;;1.58;0.80;;;;;;;26.80;22.16;102071.16;5191393;28;20022;-71
2023/06/04 11:47:20;;;;;;;2.20;1.13;;;;;;;26.67;22.14;102059.38;5170375;28;20034;-71
2023/06/04 11:49:56;;;;;;;2.25;1.00;;;;;;;27.02;22.30;102058.31;5192423;28;20026;-71